Time,TemperatureF,DewpointF,PressureIn,WindDirection,WindDirectionDegrees,WindSpeedMPH,WindSpeedGustMPH,Humidity,HourlyPrecipIn,Conditions,Clouds,dailyrainin,SoftwareType,DateUTC
2013-02-25 00:00:00,61.0,-99.9,29.62,ESE,102,18.0,20.0,-999,-99.99,,,-99.99,,2013-02-25 06:00:00,
2013-02-25 00:32:00,61.0,-99.9,29.62,ESE,102,18.0,20.0,-999,-99.99,,,-99.99,,2013-02-25 06:32:00,
2013-02-25 00:42:00,61.0,-99.9,29.62,ESE,102,18.0,20.0,-999,-99.99,,,-99.99,,2013-02-25 06:42:00,
2013-02-25 00:52:00,61.0,-99.9,29.62,ESE,102,18.0,20.0,-999,-99.99,,,-99.99,,2013-02-25 06:52:00,
2013-02-25 01:00:00,61.0,-99.9,29.60,ESE,103,16.0,18.0,-999,-99.99,,,-99.99,,2013-02-25 07:00:00,
2013-02-25 01:32:00,61.0,-99.9,29.60,ESE,103,16.0,18.0,-999,-99.99,,,-99.99,,2013-02-25 07:32:00,
2013-02-25 01:42:00,61.0,-99.9,29.60,ESE,103,16.0,18.0,-999,-99.99,,,-99.99,,2013-02-25 07:42:00,
2013-02-25 01:52:00,61.0,-99.9,29.60,ESE,103,16.0,18.0,-999,-99.99,,,-99.99,,2013-02-25 07:52:00,
2013-02-25 02:00:00,62.0,-99.9,29.57,ESE,114,14.0,17.0,-999,-99.99,,,-99.99,,2013-02-25 08:00:00,
2013-02-25 02:32:00,62.0,-99.9,29.57,ESE,114,14.0,17.0,-999,-99.99,,,-99.99,,2013-02-25 08:32:00,
2013-02-25 02:42:00,62.0,-99.9,29.57,ESE,114,14.0,17.0,-999,-99.99,,,-99.99,,2013-02-25 08:42:00,
2013-02-25 02:52:00,62.0,-99.9,29.57,ESE,114,14.0,17.0,-999,-99.99,,,-99.99,,2013-02-25 08:52:00,
2013-02-25 03:00:00,62.0,-99.9,29.56,ESE,114,11.0,12.0,-999,-99.99,,,-99.99,,2013-02-25 09:00:00,
2013-02-25 03:21:00,62.0,-99.9,29.56,ESE,114,11.0,12.0,-999,-99.99,,,-99.99,,2013-02-25 09:21:00,
2013-02-25 03:32:00,62.0,-99.9,29.56,ESE,114,11.0,12.0,-999,-99.99,,,-99.99,,2013-02-25 09:32:00,
2013-02-25 03:42:00,62.0,-99.9,29.56,ESE,114,11.0,12.0,-999,-99.99,,,-99.99,,2013-02-25 09:42:00,
2013-02-25 03:52:00,62.0,-99.9,29.56,ESE,114,11.0,12.0,-999,-99.99,,,-99.99,,2013-02-25 09:52:00,
2013-02-25 04:00:00,64.0,-99.9,29.54,SSE,165,13.0,14.0,-999,-99.99,,,-99.99,,2013-02-25 10:00:00,
2013-02-25 04:32:00,64.0,-99.9,29.54,SSE,165,13.0,14.0,-999,-99.99,,,-99.99,,2013-02-25 10:32:00,
2013-02-25 04:42:00,64.0,-99.9,29.54,SSE,165,13.0,14.0,-999,-99.99,,,-99.99,,2013-02-25 10:42:00,
2013-02-25 04:52:00,64.0,-99.9,29.54,SSE,165,13.0,14.0,-999,-99.99,,,-99.99,,2013-02-25 10:52:00,
2013-02-25 05:00:00,65.0,-99.9,29.54,SSW,192,11.0,13.0,-999,-99.99,,,-99.99,,2013-02-25 11:00:00,
2013-02-25 05:32:00,65.0,-99.9,29.54,SSW,192,11.0,13.0,-999,-99.99,,,-99.99,,2013-02-25 11:32:00,
2013-02-25 05:42:00,65.0,-99.9,29.54,SSW,192,11.0,13.0,-999,-99.99,,,-99.99,,2013-02-25 11:42:00,
2013-02-25 05:52:00,65.0,-99.9,29.54,SSW,192,11.0,13.0,-999,-99.99,,,-99.99,,2013-02-25 11:52:00,
2013-02-25 06:00:00,65.0,-99.9,29.54,South,186,11.0,12.0,-999,-99.99,,,-99.99,,2013-02-25 12:00:00,
2013-02-25 06:32:00,65.0,-99.9,29.54,South,186,11.0,12.0,-999,-99.99,,,-99.99,,2013-02-25 12:32:00,
2013-02-25 06:42:00,65.0,-99.9,29.54,South,186,11.0,12.0,-999,-99.99,,,-99.99,,2013-02-25 12:42:00,
2013-02-25 06:57:00,65.0,-99.9,29.54,South,186,11.0,12.0,-999,-99.99,,,-99.99,,2013-02-25 12:57:00,
2013-02-25 07:00:00,66.0,-99.9,29.58,WSW,238,10.0,11.0,-999,-99.99,,,-99.99,,2013-02-25 13:00:00,
2013-02-25 07:32:00,66.0,-99.9,29.58,WSW,238,10.0,11.0,-999,-99.99,,,-99.99,,2013-02-25 13:32:00,
2013-02-25 07:42:00,66.0,-99.9,29.58,WSW,238,10.0,11.0,-999,-99.99,,,-99.99,,2013-02-25 13:42:00,
2013-02-25 07:53:00,66.0,-99.9,29.58,WSW,238,10.0,11.0,-999,-99.99,,,-99.99,,2013-02-25 13:53:00,
2013-02-25 08:00:00,67.0,-99.9,29.61,West,265,7.0,11.0,-999,-99.99,,,-99.99,,2013-02-25 14:00:00,
2013-02-25 08:22:00,67.0,-99.9,29.61,West,265,7.0,11.0,-999,-99.99,,,-99.99,,2013-02-25 14:22:00,
2013-02-25 08:32:00,67.0,-99.9,29.61,West,265,7.0,11.0,-999,-99.99,,,-99.99,,2013-02-25 14:32:00,
2013-02-25 08:42:00,67.0,-99.9,29.61,West,265,7.0,11.0,-999,-99.99,,,-99.99,,2013-02-25 14:42:00,
2013-02-25 08:52:00,67.0,-99.9,29.61,West,265,7.0,11.0,-999,-99.99,,,-99.99,,2013-02-25 14:52:00,
2013-02-25 09:00:00,67.0,-99.9,29.61,West,268,10.0,13.0,-999,-99.99,,,-99.99,,2013-02-25 15:00:00,
2013-02-25 09:32:00,67.0,-99.9,29.61,West,268,10.0,13.0,-999,-99.99,,,-99.99,,2013-02-25 15:32:00,
2013-02-25 09:42:00,67.0,-99.9,29.61,West,268,10.0,13.0,-999,-99.99,,,-99.99,,2013-02-25 15:42:00,
2013-02-25 09:52:00,67.0,-99.9,29.61,West,268,10.0,13.0,-999,-99.99,,,-99.99,,2013-02-25 15:52:00,
2013-02-25 10:00:00,65.0,-99.9,29.66,NW,326,27.0,31.0,-999,-99.99,,,-99.99,,2013-02-25 16:00:00,
2013-02-25 10:32:00,65.0,-99.9,29.66,NW,326,27.0,31.0,-999,-99.99,,,-99.99,,2013-02-25 16:32:00,
2013-02-25 10:42:00,65.0,-99.9,29.66,NW,326,27.0,31.0,-999,-99.99,,,-99.99,,2013-02-25 16:42:00,
2013-02-25 10:52:00,65.0,-99.9,29.66,NW,326,27.0,31.0,-999,-99.99,,,-99.99,,2013-02-25 16:52:00,
2013-02-25 11:00:00,64.0,-99.9,29.67,NW,325,19.0,26.0,-999,-99.99,,,-99.99,,2013-02-25 17:00:00,
2013-02-25 11:32:00,64.0,-99.9,29.67,NW,325,19.0,26.0,-999,-99.99,,,-99.99,,2013-02-25 17:32:00,
2013-02-25 11:42:00,64.0,-99.9,29.67,NW,325,19.0,26.0,-999,-99.99,,,-99.99,,2013-02-25 17:42:00,
2013-02-25 11:52:00,64.0,-99.9,29.67,NW,325,19.0,26.0,-999,-99.99,,,-99.99,,2013-02-25 17:52:00,
2013-02-25 12:00:00,69.0,-99.9,29.66,WNW,301,22.0,30.0,-999,-99.99,,,-99.99,,2013-02-25 18:00:00,
2013-02-25 12:33:00,69.0,-99.9,29.66,WNW,301,22.0,30.0,-999,-99.99,,,-99.99,,2013-02-25 18:33:00,
2013-02-25 12:42:00,69.0,-99.9,29.66,WNW,301,22.0,30.0,-999,-99.99,,,-99.99,,2013-02-25 18:42:00,
2013-02-25 12:52:00,69.0,-99.9,29.66,WNW,301,22.0,30.0,-999,-99.99,,,-99.99,,2013-02-25 18:52:00,
2013-02-25 13:00:00,70.0,-99.9,29.65,NW,308,23.0,34.0,-999,-99.99,,,-99.99,,2013-02-25 19:00:00,
2013-02-25 13:32:00,70.0,-99.9,29.65,NW,308,23.0,34.0,-999,-99.99,,,-99.99,,2013-02-25 19:32:00,
2013-02-25 13:42:00,70.0,-99.9,29.65,NW,308,23.0,34.0,-999,-99.99,,,-99.99,,2013-02-25 19:42:00,
2013-02-25 13:52:00,70.0,-99.9,29.65,NW,308,23.0,34.0,-999,-99.99,,,-99.99,,2013-02-25 19:52:00,
2013-02-25 14:00:00,71.0,-99.9,29.61,WNW,284,25.0,37.0,-999,-99.99,,,-99.99,,2013-02-25 20:00:00,
2013-02-25 14:32:00,71.0,-99.9,29.61,WNW,284,25.0,37.0,-999,-99.99,,,-99.99,,2013-02-25 20:32:00,
2013-02-25 14:42:00,71.0,-99.9,29.61,WNW,284,25.0,37.0,-999,-99.99,,,-99.99,,2013-02-25 20:42:00,
2013-02-25 14:52:00,71.0,-99.9,29.61,WNW,284,25.0,37.0,-999,-99.99,,,-99.99,,2013-02-25 20:52:00,
2013-02-25 15:00:00,68.0,-99.9,29.62,West,278,33.0,41.0,-999,-99.99,,,-99.99,,2013-02-25 21:00:00,
2013-02-25 15:32:00,68.0,-99.9,29.62,West,278,33.0,41.0,-999,-99.99,,,-99.99,,2013-02-25 21:32:00,
2013-02-25 15:42:00,68.0,-99.9,29.62,West,278,33.0,41.0,-999,-99.99,,,-99.99,,2013-02-25 21:42:00,
2013-02-25 15:52:00,68.0,-99.9,29.62,West,278,33.0,41.0,-999,-99.99,,,-99.99,,2013-02-25 21:52:00,
2013-02-25 16:00:00,67.0,-99.9,29.65,WNW,288,30.0,39.0,-999,-99.99,,,-99.99,,2013-02-25 22:00:00,
2013-02-25 16:21:00,67.0,-99.9,29.65,WNW,288,30.0,39.0,-999,-99.99,,,-99.99,,2013-02-25 22:21:00,
2013-02-25 16:32:00,67.0,-99.9,29.65,WNW,288,30.0,39.0,-999,-99.99,,,-99.99,,2013-02-25 22:32:00,
2013-02-25 16:42:00,67.0,-99.9,29.65,WNW,288,30.0,39.0,-999,-99.99,,,-99.99,,2013-02-25 22:42:00,
2013-02-25 16:52:00,67.0,-99.9,29.65,WNW,288,30.0,39.0,-999,-99.99,,,-99.99,,2013-02-25 22:52:00,
2013-02-25 17:00:00,65.0,-99.9,29.67,WNW,303,30.0,38.0,-999,-99.99,,,-99.99,,2013-02-25 23:00:00,
2013-02-25 17:32:00,65.0,-99.9,29.67,WNW,303,30.0,38.0,-999,-99.99,,,-99.99,,2013-02-25 23:32:00,
2013-02-25 17:42:00,65.0,-99.9,29.67,WNW,303,30.0,38.0,-999,-99.99,,,-99.99,,2013-02-25 23:42:00,
2013-02-25 17:52:00,65.0,-99.9,29.67,WNW,303,30.0,38.0,-999,-99.99,,,-99.99,,2013-02-25 23:52:00,
2013-02-25 18:00:00,62.0,-99.9,29.70,NW,304,20.0,29.0,-999,-99.99,,,-99.99,,2013-02-26 00:00:00,
2013-02-25 18:32:00,62.0,-99.9,29.70,NW,304,20.0,29.0,-999,-99.99,,,-99.99,,2013-02-26 00:32:00,
2013-02-25 18:42:00,62.0,-99.9,29.70,NW,304,20.0,29.0,-999,-99.99,,,-99.99,,2013-02-26 00:42:00,
2013-02-25 18:52:00,62.0,-99.9,29.70,NW,304,20.0,29.0,-999,-99.99,,,-99.99,,2013-02-26 00:52:00,
2013-02-25 19:00:00,61.0,-99.9,29.72,WNW,300,19.0,23.0,-999,-99.99,,,-99.99,,2013-02-26 01:00:00,
2013-02-25 19:32:00,61.0,-99.9,29.72,WNW,300,19.0,23.0,-999,-99.99,,,-99.99,,2013-02-26 01:32:00,
2013-02-25 19:42:00,61.0,-99.9,29.72,WNW,300,19.0,23.0,-999,-99.99,,,-99.99,,2013-02-26 01:42:00,
2013-02-25 19:52:00,61.0,-99.9,29.72,WNW,300,19.0,23.0,-999,-99.99,,,-99.99,,2013-02-26 01:52:00,
2013-02-25 20:00:00,59.0,-99.9,29.76,NW,308,16.0,21.0,-999,-99.99,,,-99.99,,2013-02-26 02:00:00,
2013-02-25 20:32:00,59.0,-99.9,29.76,NW,308,16.0,21.0,-999,-99.99,,,-99.99,,2013-02-26 02:32:00,
2013-02-25 20:42:00,59.0,-99.9,29.76,NW,308,16.0,21.0,-999,-99.99,,,-99.99,,2013-02-26 02:42:00,
2013-02-25 20:52:00,59.0,-99.9,29.76,NW,308,16.0,21.0,-999,-99.99,,,-99.99,,2013-02-26 02:52:00,
2013-02-25 21:00:00,57.0,-99.9,29.81,NW,308,23.0,32.0,-999,-99.99,,,-99.99,,2013-02-26 03:00:00,
2013-02-25 21:32:00,57.0,-99.9,29.81,NW,308,23.0,32.0,-999,-99.99,,,-99.99,,2013-02-26 03:32:00,
2013-02-25 21:42:00,57.0,-99.9,29.81,NW,308,23.0,32.0,-999,-99.99,,,-99.99,,2013-02-26 03:42:00,
2013-02-25 21:52:00,57.0,-99.9,29.81,NW,308,23.0,32.0,-999,-99.99,,,-99.99,,2013-02-26 03:52:00,
2013-02-25 22:00:00,55.0,-99.9,29.83,WNW,301,21.0,26.0,-999,-99.99,,,-99.99,,2013-02-26 04:00:00,
2013-02-25 22:32:00,55.0,-99.9,29.83,WNW,301,21.0,26.0,-999,-99.99,,,-99.99,,2013-02-26 04:32:00,
2013-02-25 22:43:00,55.0,-99.9,29.83,WNW,301,21.0,26.0,-999,-99.99,,,-99.99,,2013-02-26 04:43:00,
2013-02-25 22:52:00,55.0,-99.9,29.83,WNW,301,21.0,26.0,-999,-99.99,,,-99.99,,2013-02-26 04:52:00,
2013-02-25 23:00:00,53.0,-99.9,29.85,NW,310,17.0,21.0,-999,-99.99,,,-99.99,,2013-02-26 05:00:00,
2013-02-25 23:32:00,53.0,-99.9,29.85,NW,310,17.0,21.0,-999,-99.99,,,-99.99,,2013-02-26 05:32:00,
2013-02-25 23:43:00,53.0,-99.9,29.85,NW,310,17.0,21.0,-999,-99.99,,,-99.99,,2013-02-26 05:43:00,
2013-02-25 23:52:00,53.0,-99.9,29.85,NW,310,17.0,21.0,-999,-99.99,,,-99.99,,2013-02-26 05:52:00,